Weather observations for the past three days for
Rutherfordton, Rutherford County-Marchman Field Airport
Metric (Imperial)
Date Time (edt) Wind (kph) Vis. (km) Weather Sky Cond. Temperature (ºC) Relative Humidity Wind Chill (°C) Heat Index (°C) Pressure Precipitation (cm)
Air Dwpt 6 hour altimeter (cm) sea level (mb) 1 hr 3 hr 6 hr
Max. Min.
03 19:35 Calm 16.09 Partly Cloudy SCT055 31 23 62% 35 76.3 0.0
03 19:15 Calm 16.09 Partly Cloudy SCT055 31 23 62% 35 76.28 0.0
03 18:35 Calm 16.09 Mostly Cloudy BKN060 BKN065 BKN085 33 21 49% 36 76.3 0.0
03 18:15 Calm 16.09 Partly Cloudy SCT060 33 21 49% 36 76.3 0.0
03 17:55 Calm 16.09 Mostly Cloudy SCT060 SCT070 BKN090 34 21 47% 37 76.28 0.0
03 17:35 Calm 16.09 Mostly Cloudy SCT060 BKN080 35 20 41% 38 76.3 0.0
03 17:15 Calm 16.09 Fair CLR 35 21 44% 38 76.3 0.0
03 16:55 Calm 16.09 Fair CLR 34 20 44% 36 76.33 0.0
03 16:35 Calm 16.09 Fair CLR 34 20 44% 36 76.33 0.0
03 16:15 E 6 16.09 Fair CLR 35 20 41% 38 76.35 0.0
03 15:55 NE 6 16.09 Fair CLR 34 20 44% 36 76.35 0.0
03 15:35 Calm 16.09 Fair CLR 34 21 47% 37 76.38 0.0
03 15:15 E 6 16.09 Partly Cloudy SCT050 35 20 41% 38 76.4 0.0
03 14:55 E 6 16.09 Mostly Cloudy BKN050 34 21 47% 37 76.4 0.0
03 14:35 NW 7 16.09 Partly Cloudy SCT050 35 21 44% 38 76.43 0.0
03 14:15 Calm 16.09 Partly Cloudy SCT050 34 20 44% 36 76.43 0.0
03 13:55 N 7 16.09 Fair CLR 34 21 47% 37 76.43 0.0
03 13:35 Calm 16.09 Fair CLR 33 20 46% 35 76.45 0.0
03 13:15 Calm 16.09 Fair CLR 33 21 49% 36 76.48 0.0
03 12:55 Calm 16.09 Fair CLR 33 20 46% 35 76.5 0.0
03 12:35 Calm 16.09 Fair CLR 33 22 52% 37 76.5 0.0
03 12:15 SE 6 16.09 Fair CLR 32 22 55% 36 76.53 0.0
03 11:55 Calm 16.09 Fair CLR 32 22 55% 36 76.53 0.0
03 11:35 Calm 16.09 Fair CLR 32 22 55% 36 76.53 0.0
03 11:15 N 6 16.09 Fair CLR 31 21 55% 34 76.53 0.0
03 10:55 Calm 16.09 Fair CLR 30 21 59% 33 76.53 0.0
03 10:35 N 6 16.09 Fair CLR 30 21 59% 33 76.53 0.0
03 10:15 Calm 16.09 Fair CLR 29 22 66% 32 76.53 0.0
03 09:55 N 6 16.09 Fair CLR 28 22 70% 31 76.53 0.0
03 09:35 Calm 16.09 Fair CLR 27 21 70% 29 76.53 0.0
03 09:15 Calm 16.09 Fair CLR 27 21 70% 29 76.53 0.0
03 08:55 Calm 16.09 Fair CLR 25 21 79% 26 76.53 0.0
03 08:35 Calm 16.09 Fair CLR 25 22 83% 26 76.56 0.0
03 08:15 Calm 16.09 Fair CLR 23 21 89% 76.53 0.0
03 07:55 Calm 16.09 Fair CLR 22 22 100% 76.53 0.0
03 07:35 Calm 16.09 Fair CLR 21 21 100% 76.5 0.0
03 07:15 Calm 11.27 Fair CLR 21 21 100% 76.48 0.0
03 06:55 Calm 16.09 Fair CLR 21 21 100% 76.48 0.0
03 06:35 Calm 16.09 Fair CLR 22 22 100% 76.45 0.0
03 06:15 NW 6 16.09 Fair CLR 21 21 100% 76.45 0.0
03 05:55 NW 6 16.09 Fair CLR 22 22 100% 76.43 0.0
03 05:35 W 6 16.09 Fair CLR 22 22 100% 76.43 0.0
03 05:15 Calm 16.09 Fair CLR 21 21 100% 76.43 0.0
03 04:55 NW 6 16.09 Fair CLR 21 21 100% 76.43 0.0
03 04:35 Calm 16.09 Fair CLR 22 22 100% 76.43 0.0
03 04:15 Calm 16.09 Fair CLR 22 22 100% 76.43 0.0
03 03:55 Calm 16.09 Fair CLR 22 22 100% 76.4 0.0
03 03:35 NW 6 16.09 Fair CLR 22 22 100% 76.4 0.0
03 03:15 Calm 16.09 Fair CLR 22 22 100% 76.4 0.0
03 02:55 Calm 16.09 Fair CLR 22 22 100% 76.4 0.0
03 02:35 Calm 16.09 Fair CLR 22 22 100% 76.4 0.0
03 02:15 Calm 16.09 Fair CLR 23 23 100% 76.4 0.0
03 01:55 N 7 16.09 Fair CLR 23 23 100% 76.43 0.0
03 01:35 NW 6 16.09 Fair CLR 23 23 100% 76.43 0.0
03 01:15 Calm 16.09 Fair CLR 23 23 100% 76.45 0.0
03 00:55 Calm 16.09 Fair CLR 23 23 100% 76.45 0.0
03 00:35 NW 6 16.09 Fair CLR 23 23 100% 76.45 0.0
03 00:15 NW 6 16.09 Fair CLR 23 23 100% 76.48 0.0
02 23:55 NW 6 16.09 Fair CLR 23 23 100% 76.48 0.0
02 23:35 Calm 16.09 Fair CLR 24 24 100% 23 76.48 0.0
02 23:15 Calm 16.09 Fair CLR 24 24 100% 23 76.5 0.0
02 22:55 Calm 16.09 Fair CLR 25 24 94% 26 76.5 0.0
02 22:35 Calm 16.09 Fair CLR 25 24 94% 26 76.5 0.0
02 22:15 Calm 16.09 Fair CLR 25 24 94% 26 76.5 0.0
02 21:55 Calm 16.09 Fair CLR 25 23 89% 26 76.5 0.0
02 21:35 Calm 16.09 Fair CLR 26 23 84% 28 76.48 0.0
02 21:15 Calm 16.09 Fair CLR 26 23 84% 28 76.45 0.0
02 20:55 Calm 16.09 Fair CLR 27 22 74% 29 76.43 0.0
02 20:35 Calm 16.09 Fair CLR 27 23 79% 30 76.43 0.0
02 20:15 Calm 16.09 Fair CLR 28 22 70% 31 76.4 0.0
02 19:55 Calm 16.09 Fair CLR 30 22 62% 33 76.4 0.0
02 19:35 Calm 16.09 Fair CLR 30 22 62% 33 76.38 0.0
02 19:15 Calm 16.09 Fair CLR 30 22 62% 33 76.4 0.0
02 18:55 Calm 16.09 Fair CLR 32 21 52% 35 76.4 0.0
02 18:35 Calm 16.09 Fair CLR 33 20 46% 35 76.4 0.0
02 18:15 Calm 16.09 Fair CLR 33 20 46% 35 76.4 0.0
02 17:55 Calm 16.09 Fair CLR 33 19 44% 35 76.4 0.0
02 17:35 SW 6 16.09 Fair CLR 33 20 46% 35 76.43 0.0
02 17:15 Calm 16.09 Fair CLR 33 20 46% 35 76.43 0.0
02 16:55 S 6 16.09 Fair CLR 33 19 44% 35 76.43 0.0
02 16:35 Calm 16.09 Fair CLR 34 20 44% 36 76.43 0.0
02 16:15 W 6 16.09 Fair CLR 34 20 44% 36 76.43 0.0
02 15:55 W 7 16.09 Fair CLR 34 20 44% 36 76.45 0.0
02 15:35 W 6 16.09 Fair CLR 34 19 41% 36 76.48 0.0
02 15:15 Calm 16.09 Fair CLR 33 20 46% 35 76.48 0.0
02 14:55 W 6 16.09 Fair CLR 34 20 44% 36 76.5 0.0
02 14:35 Calm 16.09 Fair CLR 33 20 46% 35 76.5 0.0
02 14:15 W 6 16.09 Fair CLR 33 20 46% 35 76.53 0.0
02 13:55 Calm 16.09 Fair CLR 33 20 46% 35 76.53 0.0
02 13:35 W 6 16.09 Fair CLR 32 20 49% 34 76.56 0.0
02 13:15 NW 6 16.09 Fair CLR 32 20 49% 34 76.56 0.0
02 12:55 Calm 11.27 Fair CLR 32 20 49% 34 76.58 0.0
02 12:35 Calm 16.09 Fair CLR 32 21 52% 35 76.61 0.0
02 12:15 Calm 16.09 Fair CLR 32 21 52% 35 76.61 0.0
02 11:55 Calm 16.09 Fair CLR 31 21 55% 34 76.63 0.0
02 11:35 Calm 16.09 Fair CLR 31 21 55% 34 76.63 0.0
02 11:15 N 6 16.09 Fair CLR 31 21 55% 34 76.63 0.0
02 10:55 Calm 16.09 Fair CLR 30 21 59% 33 76.63 0.0
02 10:35 NW 6 16.09 Fair CLR 30 21 59% 33 76.63 0.0
02 10:15 Calm 16.09 Fair CLR 28 21 66% 30 76.63 0.0
02 09:55 NW 7 16.09 Fair CLR 27 22 74% 29 76.63 0.0
02 09:35 NW 6 16.09 Fair CLR 27 21 70% 29 76.63 0.0
02 09:15 Calm 16.09 Fair CLR 26 21 74% 27 76.61 0.0
02 08:55 Calm 16.09 Fair CLR 25 21 79% 26 76.63 0.0
02 08:35 NW 6 16.09 Fair CLR 25 21 79% 26 76.61 0.0
02 08:15 Calm 16.09 Fair CLR 23 20 83% 76.61 0.0
02 07:55 Calm 16.09 Fair CLR 23 20 83% 76.61 0.0
02 07:35 N 6 16.09 Fair CLR 22 20 88% 76.58 0.0
02 07:15 NW 6 16.09 Fair CLR 22 20 88% 76.58 0.0
02 06:55 NW 6 16.09 Fair CLR 21 20 94% 76.56 0.0
02 06:35 Calm 16.09 Fair CLR 21 21 100% 76.56 0.0
02 06:15 Calm 16.09 Fair CLR 22 20 88% 76.56 0.0
02 05:55 N 7 16.09 Fair CLR 22 20 88% 76.53 0.0
02 05:35 NW 7 16.09 Fair CLR 22 20 88% 76.53 0.0
02 05:15 NW 6 16.09 Fair CLR 22 21 94% 76.5 0.0
02 04:55 NW 6 16.09 Fair CLR 21 21 100% 76.5 0.0
02 04:35 NW 6 16.09 Fair CLR 22 21 94% 76.5 0.0
02 04:15 Calm 16.09 Fair CLR 22 21 94% 76.5 0.0
02 03:55 Calm 16.09 Fair CLR 22 21 94% 76.5 0.0
02 03:35 NW 6 16.09 Fair CLR 23 21 89% 76.5 0.0
02 03:15 Calm 16.09 Fair CLR 23 21 89% 76.5 0.0
02 02:55 N 7 16.09 Fair CLR 23 21 89% 76.5 0.0
02 02:35 N 6 16.09 Fair CLR 22 22 100% 76.5 0.0
02 02:15 Calm 16.09 Fair CLR 23 23 100% 76.5 0.0
02 01:55 NW 7 16.09 Fair CLR 23 23 100% 76.5 0.0
02 01:35 NW 6 16.09 Fair CLR 23 23 100% 76.53 0.0
02 01:15 Calm 16.09 Fair CLR 23 23 100% 76.5 0.0
02 00:55 Calm 16.09 Fair CLR 23 23 100% 76.5 0.0
02 00:35 Calm 16.09 Fair CLR 23 23 100% 76.5 0.0
02 00:15 Calm 16.09 Fair CLR 23 23 100% 76.5 0.0
01 23:55 Calm 16.09 Fair CLR 24 24 100% 23 76.5 0.0
01 23:35 Calm 16.09 Fair CLR 24 24 100% 23 76.5 0.0
01 23:15 Calm 16.09 Fair CLR 24 24 100% 23 76.5 0.0
01 22:55 Calm 16.09 Fair CLR 25 24 94% 26 76.5 0.0
01 22:35 Calm 16.09 Fair CLR 25 24 94% 26 76.48 0.0
01 22:15 Calm 16.09 Fair CLR 25 24 94% 26 76.48 0.0
01 21:55 Calm 16.09 Fair CLR 26 25 94% 28 76.48 0.0
01 21:35 Calm 16.09 Fair CLR 26 25 94% 28 76.48 0.0
01 21:15 Calm 16.09 Fair CLR 26 24 89% 28 76.45 0.0
01 20:55 Calm 16.09 Fair CLR 27 23 79% 30 76.45 0.0
01 20:35 Calm 16.09 Fair CLR 28 23 74% 31 76.43 0.0
01 20:15 Calm 16.09 Partly Cloudy SCT070 27 23 79% 30 76.43 0.0
01 19:55 Calm 16.09 Partly Cloudy SCT070 28 23 74% 31 76.43 0.0
01 19:35 Calm 16.09 Fair CLR 30 23 66% 34 76.43 0.0
01 19:15 Calm 16.09 Fair CLR 30 22 62% 33 76.43 0.0
01 18:55 Calm 16.09 Fair CLR 32 21 52% 35 76.43 0.0
01 18:35 Calm 16.09 Partly Cloudy SCT080 32 19 46% 33 76.45 0.0
01 18:15 Calm 16.09 Fair CLR 33 20 46% 35 76.43 0.0
01 17:55 Calm 16.09 Fair CLR 33 20 46% 35 76.43 0.0
01 17:35 Calm 16.09 Fair CLR 33 20 46% 35 76.43 0.0
01 17:15 Calm 16.09 Fair CLR 33 18 41% 34 76.45 0.0
01 16:55 NE 7 16.09 Fair CLR 34 19 41% 36 76.45 0.0
01 16:35 Calm 16.09 Fair CLR 34 18 39% 35 76.45 0.0
01 16:15 Calm 16.09 Fair CLR 33 18 41% 34 76.45 0.0
01 15:55 Calm 16.09 Fair CLR 33 18 41% 34 76.48 0.0
01 15:35 Calm 16.09 Fair CLR 34 18 39% 35 76.48 0.0
01 15:15 NE 6 16.09 Fair CLR 33 19 44% 35 76.5 0.0
01 14:55 Calm 16.09 Fair CLR 33 19 44% 35 76.53 0.0
01 14:35 E 7 16.09 Partly Cloudy SCT050 33 20 46% 35 76.53 0.0
01 14:15 E 7 16.09 Fair CLR 33 20 46% 35 76.53 0.0
01 13:55 Calm 16.09 Fair CLR 32 20 49% 34 76.53 0.0
01 13:35 Calm 16.09 Fair CLR 32 20 49% 34 76.56 0.0
01 13:15 NW 7 16.09 Fair CLR 32 21 52% 35 76.58 0.0
01 12:55 Calm 16.09 Fair CLR 32 20 49% 34 76.58 0.0
01 12:35 NW 13 16.09 Fair CLR 31 20 52% 33 76.61 0.0
01 12:15 NW 6 16.09 Fair CLR 31 21 55% 34 76.61 0.0
01 11:55 Calm 16.09 Fair CLR 30 21 59% 33 76.63 0.0
01 11:35 Calm 16.09 Fair CLR 30 21 59% 33 76.63 0.0
01 11:15 Calm 16.09 Fair CLR 29 21 62% 31 76.63 0.0
01 10:55 Calm 16.09 Fair CLR 29 21 62% 31 76.66 0.0
01 10:35 Calm 16.09 Fair CLR 28 20 62% 30 76.63 0.0
01 10:15 NW 7 16.09 Fair CLR 27 20 66% 29 76.63 0.0
01 09:55 Calm 16.09 Fair CLR 26 21 74% 27 76.66 0.0
01 09:35 NW 7 16.09 Fair CLR 26 20 70% 27 76.63 0.0
01 09:15 NW 6 16.09 Fair CLR 25 20 74% 26 76.63 0.0
01 08:55 NW 6 16.09 Fair CLR 23 20 83% 76.63 0.0
01 08:35 Calm 16.09 Fair CLR 22 20 88% 76.63 0.0
01 08:15 Calm 16.09 Fair CLR 21 20 94% 76.63 0.0
01 07:55 Calm 16.09 Fair CLR 20 20 100% 76.63 0.0
01 07:35 Calm 11.27 Fair CLR 19 19 100% 76.61 0.0
01 07:15 Calm 16.09 Fair CLR 20 20 100% 76.58 0.0
01 06:55 Calm 16.09 Fair CLR 20 20 100% 76.56 0.0
01 06:35 Calm 16.09 Fair CLR 20 20 100% 76.56 0.0
01 06:15 Calm 16.09 Fair CLR 20 20 100% 76.56 0.0
01 05:55 Calm 16.09 Fair CLR 20 20 100% 76.53 0.0
01 05:35 NW 7 16.09 Fair CLR 20 20 100% 76.53 0.0
01 05:15 NW 6 16.09 Fair CLR 20 20 100% 76.53 0.0
01 04:55 NW 6 16.09 Fair CLR 20 20 100% 76.56 0.0
01 04:35 NW 6 16.09 Fair CLR 20 20 100% 76.56 0.0
01 04:15 Calm 16.09 Fair CLR 20 20 100% 76.56 0.0
01 03:55 Calm 16.09 Fair CLR 20 20 100% 76.56 0.0
01 03:35 NW 7 11.27 Fair CLR 20 20 100% 76.56 0.0
01 03:15 Calm 16.09 Fair CLR 21 21 100% 76.58 0.0
01 02:55 Calm 16.09 Fair CLR 21 21 100% 76.58 0.0
01 02:35 Calm 16.09 Fair CLR 21 21 100% 76.58 0.0
01 02:15 Calm 16.09 Fair CLR 21 21 100% 76.58 0.0
01 01:55 NW 7 16.09 Fair CLR 21 21 100% 76.58 0.0
01 01:35 Calm 16.09 Fair CLR 21 21 100% 76.61 0.0
01 01:15 NW 6 16.09 Fair CLR 21 21 100% 76.61 0.0
01 00:55 Calm 16.09 Fair CLR 22 22 100% 76.61 0.0
01 00:35 Calm 11.27 Fair CLR 21 21 100% 76.61 0.0
01 00:15 NW 6 16.09 Fair CLR 22 22 100% 76.61 0.0
31 23:35 Calm 16.09 Fair CLR 22 22 100% 76.58 0.0
31 23:15 Calm 16.09 Fair CLR 22 22 100% 76.58 0.0
31 22:55 Calm 16.09 Fair CLR 22 22 100% 76.61 0.0
31 22:35 Calm 16.09 Fair CLR 22 22 100% 76.58 0.0
31 22:15 Calm 16.09 Fair CLR 22 22 100% 76.58 0.0
31 21:55 Calm 16.09 Fair CLR 23 23 100% 76.58 0.0
31 21:35 NW 6 16.09 Fair CLR 23 23 100% 76.56 0.0
31 21:15 NW 6 16.09 Fair CLR 23 23 100% 76.53 0.0
31 20:55 Calm 16.09 Fair CLR 24 22 89% 24 76.53 0.0
31 20:35 NW 6 16.09 Fair CLR 23 23 100% 76.53 0.0
31 20:15 Calm 16.09 Fair CLR 25 22 83% 26 76.53 0.0
Date Time (edt) Wind (kph) Vis. (km) Weather Sky Cond. Air Dwpt Max. Min. Relative Humidity Wind Chill (°C) Heat Index (°C) altimeter (cm) sea level (mb) 1 hr 3 hr 6 hr
6 hour
Temperature (ºC) Pressure Precipitation (cm)